Hik — 9HQT7 — position and weather

sailwx.info

Track history (hours):
 
Tides and Currents Weather Stations Pressure Air Temp Water Temp Dewpoint Dewpoint Depression Visibility Wind Speed Wind Dir Waves Ship Positions

Hik

Last reported at 2018-Jun-13 23:59 UTC. Time now 2018-Jun-19 08:27 UTC.
Position N 40°56' E 028°50'.

Length 176 m; draft 6.2 m.

Type: Ship. MMSI: 229499000.

Date/timePositionNaut miles runAvg speedWind from/ knotsBaromVisibWave heightAir tempDewpointWater temp
2018-Jun-13 23:59N 40°56' E 028°50'0 0.0
2018-Jun-13 23:23N 40°56' E 028°50'0 0.0
2018-Jun-13 22:50N 40°56' E 028°50'0 0.0
2018-Jun-13 22:29N 40°56' E 028°50'0 0.0
2018-Jun-13 21:52N 40°56' E 028°50'0 0.0
2018-Jun-13 21:25N 40°56' E 028°50'0 0.0
2018-Jun-13 20:55N 40°56' E 028°50'0 0.0
2018-Jun-13 19:49N 40°56' E 028°50'0 0.0
2018-Jun-13 19:24N 40°56' E 028°50'0 0.0
2018-Jun-13 19:00N 40°56' E 028°50'0 0.0
2018-Jun-13 18:30N 40°56' E 028°50'8 0.6
2018-Jun-13 04:58N 40°53' E 029°01'4 7.7
2018-Jun-13 04:30N 40°50' E 028°60'5 9.9
2018-Jun-13 04:00N 40°47' E 028°54'3 5.0
2018-Jun-13 03:27N 40°45' E 028°52'1 1.3
2018-Jun-13 02:57N 40°45' E 028°53'1 1.4
2018-Jun-13 02:30N 40°45' E 028°53'1 1.4
2018-Jun-13 02:00N 40°45' E 028°54'1 1.5
2018-Jun-13 01:29N 40°45' E 028°55'1 1.4
2018-Jun-13 01:00N 40°45' E 028°56'1 1.3
2018-Jun-13 00:30N 40°45' E 028°57'0 1.0
2018-Jun-13 00:00N 40°45' E 028°58'0 0.7
2018-Jun-12 23:28N 40°45' E 028°58'1 0.8
2018-Jun-12 22:49N 40°45' E 028°59'0 1.0
2018-Jun-12 22:30N 40°45' E 028°59'1 1.1
2018-Jun-12 22:00N 40°45' E 028°60'1 1.1
2018-Jun-12 21:30N 40°46' E 029°01'  
Track history (hours):
 
Tides and Currents Weather Stations Pressure Air Temp Water Temp Dewpoint Dewpoint Depression Visibility Wind Speed Wind Dir Waves Ship Positions

Hik

Last reported at 2018-Jun-13 23:59 UTC. Time now 2018-Jun-19 08:27 UTC.
Position N 40°56' E 028°50'.

Length 176 m; draft 6.2 m.

Type: Ship. MMSI: 229499000.

Date/timePositionNaut miles runAvg speedWind from/ knotsBaromVisibWave heightAir tempDewpointWater temp
2018-Jun-13 23:59N 40°56' E 028°50'0 0.0
2018-Jun-13 23:23N 40°56' E 028°50'0 0.0
2018-Jun-13 22:50N 40°56' E 028°50'0 0.0
2018-Jun-13 22:29N 40°56' E 028°50'0 0.0
2018-Jun-13 21:52N 40°56' E 028°50'0 0.0
2018-Jun-13 21:25N 40°56' E 028°50'0 0.0
2018-Jun-13 20:55N 40°56' E 028°50'0 0.0
2018-Jun-13 19:49N 40°56' E 028°50'0 0.0
2018-Jun-13 19:24N 40°56' E 028°50'0 0.0
2018-Jun-13 19:00N 40°56' E 028°50'0 0.0
2018-Jun-13 18:30N 40°56' E 028°50'8 0.6
2018-Jun-13 04:58N 40°53' E 029°01'4 7.7
2018-Jun-13 04:30N 40°50' E 028°60'5 9.9
2018-Jun-13 04:00N 40°47' E 028°54'3 5.0
2018-Jun-13 03:27N 40°45' E 028°52'1 1.3
2018-Jun-13 02:57N 40°45' E 028°53'1 1.4
2018-Jun-13 02:30N 40°45' E 028°53'1 1.4
2018-Jun-13 02:00N 40°45' E 028°54'1 1.5
2018-Jun-13 01:29N 40°45' E 028°55'1 1.4
2018-Jun-13 01:00N 40°45' E 028°56'1 1.3
2018-Jun-13 00:30N 40°45' E 028°57'0 1.0
2018-Jun-13 00:00N 40°45' E 028°58'0 0.7
2018-Jun-12 23:28N 40°45' E 028°58'1 0.8
2018-Jun-12 22:49N 40°45' E 028°59'0 1.0
2018-Jun-12 22:30N 40°45' E 028°59'1 1.1
2018-Jun-12 22:00N 40°45' E 028°60'1 1.1
2018-Jun-12 21:30N 40°46' E 029°01'  

Dump ship's entire track history